sensor_id;sensor_type;location;lat;lon;timestamp;P1;durP1;ratioP1;P2;durP2;ratioP2
4323;SDS011;2175;51.018;6.994;2023-05-07T00:02:24;5.50;;;4.40;;
4323;SDS011;2175;51.018;6.994;2023-05-07T00:04:50;8.23;;;4.73;;
4323;SDS011;2175;51.018;6.994;2023-05-07T00:07:17;12.23;;;4.10;;
4323;SDS011;2175;51.018;6.994;2023-05-07T00:09:43;8.30;;;4.53;;
4323;SDS011;2175;51.018;6.994;2023-05-07T00:12:09;4.70;;;4.00;;
4323;SDS011;2175;51.018;6.994;2023-05-07T00:14:35;12.13;;;4.40;;
4323;SDS011;2175;51.018;6.994;2023-05-07T00:17:01;5.00;;;4.33;;
4323;SDS011;2175;51.018;6.994;2023-05-07T00:19:27;6.73;;;4.43;;
4323;SDS011;2175;51.018;6.994;2023-05-07T00:21:52;6.10;;;4.50;;
4323;SDS011;2175;51.018;6.994;2023-05-07T00:24:21;6.30;;;4.47;;
4323;SDS011;2175;51.018;6.994;2023-05-07T00:26:46;5.63;;;4.57;;
4323;SDS011;2175;51.018;6.994;2023-05-07T00:29:12;7.60;;;4.53;;
4323;SDS011;2175;51.018;6.994;2023-05-07T00:31:38;6.70;;;4.83;;
4323;SDS011;2175;51.018;6.994;2023-05-07T00:34:03;6.87;;;4.97;;
4323;SDS011;2175;51.018;6.994;2023-05-07T00:36:29;5.37;;;4.27;;
4323;SDS011;2175;51.018;6.994;2023-05-07T00:38:56;6.23;;;4.33;;
4323;SDS011;2175;51.018;6.994;2023-05-07T00:41:22;8.03;;;5.23;;
4323;SDS011;2175;51.018;6.994;2023-05-07T00:43:47;5.87;;;4.33;;
4323;SDS011;2175;51.018;6.994;2023-05-07T00:46:13;9.43;;;4.70;;
4323;SDS011;2175;51.018;6.994;2023-05-07T00:48:40;5.50;;;4.80;;
4323;SDS011;2175;51.018;6.994;2023-05-07T00:51:06;10.60;;;5.00;;
4323;SDS011;2175;51.018;6.994;2023-05-07T00:53:32;6.20;;;4.93;;
4323;SDS011;2175;51.018;6.994;2023-05-07T00:55:57;5.43;;;4.33;;
4323;SDS011;2175;51.018;6.994;2023-05-07T00:58:23;6.00;;;4.57;;
4323;SDS011;2175;51.018;6.994;2023-05-07T01:00:49;6.70;;;4.70;;
4323;SDS011;2175;51.018;6.994;2023-05-07T01:03:15;5.60;;;4.67;;
4323;SDS011;2175;51.018;6.994;2023-05-07T01:05:41;4.73;;;3.93;;
4323;SDS011;2175;51.018;6.994;2023-05-07T01:08:08;7.60;;;4.30;;
4323;SDS011;2175;51.018;6.994;2023-05-07T01:10:34;4.87;;;4.20;;
4323;SDS011;2175;51.018;6.994;2023-05-07T01:12:59;5.53;;;4.70;;
4323;SDS011;2175;51.018;6.994;2023-05-07T01:15:26;8.50;;;4.63;;
4323;SDS011;2175;51.018;6.994;2023-05-07T01:17:51;5.30;;;4.63;;
4323;SDS011;2175;51.018;6.994;2023-05-07T01:20:18;6.20;;;4.37;;
4323;SDS011;2175;51.018;6.994;2023-05-07T01:22:44;6.63;;;4.47;;
4323;SDS011;2175;51.018;6.994;2023-05-07T01:25:10;5.13;;;4.60;;
4323;SDS011;2175;51.018;6.994;2023-05-07T01:27:36;7.27;;;4.37;;
4323;SDS011;2175;51.018;6.994;2023-05-07T01:30:05;5.50;;;4.57;;
4323;SDS011;2175;51.018;6.994;2023-05-07T01:32:33;5.73;;;4.47;;
4323;SDS011;2175;51.018;6.994;2023-05-07T01:35:10;4.47;;;4.00;;
4323;SDS011;2175;51.018;6.994;2023-05-07T01:37:46;6.80;;;4.40;;
4323;SDS011;2175;51.018;6.994;2023-05-07T01:40:12;7.33;;;4.40;;
4323;SDS011;2175;51.018;6.994;2023-05-07T01:42:38;6.30;;;4.27;;
4323;SDS011;2175;51.018;6.994;2023-05-07T01:45:06;4.40;;;3.83;;
4323;SDS011;2175;51.018;6.994;2023-05-07T01:47:32;9.90;;;4.47;;
4323;SDS011;2175;51.018;6.994;2023-05-07T01:49:58;6.63;;;4.30;;
4323;SDS011;2175;51.018;6.994;2023-05-07T01:52:24;10.83;;;5.00;;
4323;SDS011;2175;51.018;6.994;2023-05-07T01:54:50;6.73;;;5.00;;
4323;SDS011;2175;51.018;6.994;2023-05-07T01:57:15;10.00;;;4.70;;
4323;SDS011;2175;51.018;6.994;2023-05-07T01:59:41;5.50;;;4.47;;
4323;SDS011;2175;51.018;6.994;2023-05-07T02:02:07;5.20;;;4.17;;
4323;SDS011;2175;51.018;6.994;2023-05-07T02:04:33;5.07;;;4.10;;
4323;SDS011;2175;51.018;6.994;2023-05-07T02:06:59;5.90;;;4.30;;
4323;SDS011;2175;51.018;6.994;2023-05-07T02:09:24;9.57;;;4.80;;
4323;SDS011;2175;51.018;6.994;2023-05-07T02:11:50;9.53;;;4.67;;
4323;SDS011;2175;51.018;6.994;2023-05-07T02:14:15;10.90;;;4.53;;
4323;SDS011;2175;51.018;6.994;2023-05-07T02:16:41;6.47;;;4.60;;
4323;SDS011;2175;51.018;6.994;2023-05-07T02:19:07;7.40;;;4.03;;
4323;SDS011;2175;51.018;6.994;2023-05-07T02:21:32;6.43;;;3.67;;
4323;SDS011;2175;51.018;6.994;2023-05-07T02:23:58;4.77;;;4.27;;
4323;SDS011;2175;51.018;6.994;2023-05-07T02:26:23;7.27;;;4.50;;
4323;SDS011;2175;51.018;6.994;2023-05-07T02:28:49;5.10;;;4.40;;
4323;SDS011;2175;51.018;6.994;2023-05-07T02:31:15;5.30;;;4.07;;
4323;SDS011;2175;51.018;6.994;2023-05-07T02:33:41;8.03;;;5.17;;
4323;SDS011;2175;51.018;6.994;2023-05-07T02:36:07;5.63;;;4.60;;
4323;SDS011;2175;51.018;6.994;2023-05-07T02:38:34;5.17;;;3.90;;
4323;SDS011;2175;51.018;6.994;2023-05-07T02:41:00;10.10;;;4.17;;
4323;SDS011;2175;51.018;6.994;2023-05-07T02:43:25;7.60;;;4.13;;
4323;SDS011;2175;51.018;6.994;2023-05-07T02:46:01;7.03;;;4.00;;
4323;SDS011;2175;51.018;6.994;2023-05-07T02:48:27;7.23;;;4.63;;
4323;SDS011;2175;51.018;6.994;2023-05-07T02:50:53;9.70;;;4.83;;
4323;SDS011;2175;51.018;6.994;2023-05-07T02:53:19;5.50;;;4.40;;
4323;SDS011;2175;51.018;6.994;2023-05-07T02:55:44;9.53;;;4.67;;
4323;SDS011;2175;51.018;6.994;2023-05-07T02:58:10;5.50;;;4.40;;
4323;SDS011;2175;51.018;6.994;2023-05-07T03:00:35;7.60;;;4.60;;
4323;SDS011;2175;51.018;6.994;2023-05-07T03:03:01;6.10;;;3.73;;
4323;SDS011;2175;51.018;6.994;2023-05-07T03:05:27;6.40;;;4.10;;
4323;SDS011;2175;51.018;6.994;2023-05-07T03:07:52;7.93;;;4.73;;
4323;SDS011;2175;51.018;6.994;2023-05-07T03:10:18;4.33;;;3.57;;
4323;SDS011;2175;51.018;6.994;2023-05-07T03:12:43;6.77;;;4.70;;
4323;SDS011;2175;51.018;6.994;2023-05-07T03:15:09;8.23;;;4.33;;
4323;SDS011;2175;51.018;6.994;2023-05-07T03:17:37;6.07;;;4.33;;
4323;SDS011;2175;51.018;6.994;2023-05-07T03:20:03;6.33;;;4.93;;
4323;SDS011;2175;51.018;6.994;2023-05-07T03:22:29;5.77;;;4.27;;
4323;SDS011;2175;51.018;6.994;2023-05-07T03:24:55;5.43;;;4.07;;
4323;SDS011;2175;51.018;6.994;2023-05-07T03:27:20;7.27;;;4.80;;
4323;SDS011;2175;51.018;6.994;2023-05-07T03:29:46;6.67;;;4.37;;
4323;SDS011;2175;51.018;6.994;2023-05-07T03:32:11;6.80;;;4.40;;
4323;SDS011;2175;51.018;6.994;2023-05-07T03:34:37;6.50;;;5.10;;
4323;SDS011;2175;51.018;6.994;2023-05-07T03:37:02;4.73;;;3.80;;
4323;SDS011;2175;51.018;6.994;2023-05-07T03:39:28;6.77;;;4.60;;
4323;SDS011;2175;51.018;6.994;2023-05-07T03:41:54;9.57;;;5.10;;
4323;SDS011;2175;51.018;6.994;2023-05-07T03:44:19;7.03;;;4.40;;
4323;SDS011;2175;51.018;6.994;2023-05-07T03:46:45;6.13;;;4.60;;
4323;SDS011;2175;51.018;6.994;2023-05-07T03:49:10;5.57;;;4.37;;
4323;SDS011;2175;51.018;6.994;2023-05-07T03:51:36;7.43;;;4.40;;
4323;SDS011;2175;51.018;6.994;2023-05-07T03:54:01;6.00;;;4.20;;
4323;SDS011;2175;51.018;6.994;2023-05-07T03:56:27;5.30;;;3.70;;
4323;SDS011;2175;51.018;6.994;2023-05-07T03:58:53;5.30;;;3.47;;
4323;SDS011;2175;51.018;6.994;2023-05-07T04:01:19;5.70;;;4.40;;
4323;SDS011;2175;51.018;6.994;2023-05-07T04:03:44;4.73;;;4.00;;
4323;SDS011;2175;51.018;6.994;2023-05-07T04:06:10;6.07;;;3.90;;
4323;SDS011;2175;51.018;6.994;2023-05-07T04:08:37;7.00;;;4.17;;
4323;SDS011;2175;51.018;6.994;2023-05-07T04:11:02;4.57;;;3.80;;
4323;SDS011;2175;51.018;6.994;2023-05-07T04:13:29;5.07;;;3.80;;
4323;SDS011;2175;51.018;6.994;2023-05-07T04:15:55;6.03;;;3.60;;
4323;SDS011;2175;51.018;6.994;2023-05-07T04:18:21;5.13;;;3.90;;
4323;SDS011;2175;51.018;6.994;2023-05-07T04:20:47;7.10;;;3.93;;
4323;SDS011;2175;51.018;6.994;2023-05-07T04:23:14;4.70;;;3.90;;
4323;SDS011;2175;51.018;6.994;2023-05-07T04:25:39;7.40;;;3.90;;
4323;SDS011;2175;51.018;6.994;2023-05-07T04:28:05;4.90;;;4.13;;
4323;SDS011;2175;51.018;6.994;2023-05-07T04:30:31;5.87;;;3.73;;
4323;SDS011;2175;51.018;6.994;2023-05-07T04:32:56;4.20;;;3.60;;
4323;SDS011;2175;51.018;6.994;2023-05-07T04:35:22;5.13;;;3.30;;
4323;SDS011;2175;51.018;6.994;2023-05-07T04:37:48;6.20;;;3.90;;
4323;SDS011;2175;51.018;6.994;2023-05-07T04:40:13;5.20;;;4.20;;
4323;SDS011;2175;51.018;6.994;2023-05-07T04:42:39;7.87;;;4.33;;
4323;SDS011;2175;51.018;6.994;2023-05-07T04:45:05;11.17;;;6.17;;
4323;SDS011;2175;51.018;6.994;2023-05-07T04:47:31;12.33;;;7.00;;
4323;SDS011;2175;51.018;6.994;2023-05-07T04:49:59;9.27;;;5.87;;
4323;SDS011;2175;51.018;6.994;2023-05-07T04:52:25;11.97;;;5.10;;
4323;SDS011;2175;51.018;6.994;2023-05-07T04:54:51;9.80;;;5.00;;
4323;SDS011;2175;51.018;6.994;2023-05-07T04:57:17;6.83;;;4.50;;
4323;SDS011;2175;51.018;6.994;2023-05-07T04:59:43;6.07;;;4.47;;
4323;SDS011;2175;51.018;6.994;2023-05-07T05:02:10;7.90;;;4.47;;
4323;SDS011;2175;51.018;6.994;2023-05-07T05:04:35;8.60;;;4.57;;
4323;SDS011;2175;51.018;6.994;2023-05-07T05:07:02;6.20;;;4.07;;
4323;SDS011;2175;51.018;6.994;2023-05-07T05:09:29;5.00;;;3.87;;
4323;SDS011;2175;51.018;6.994;2023-05-07T05:11:55;7.53;;;3.97;;
4323;SDS011;2175;51.018;6.994;2023-05-07T05:14:20;5.30;;;3.83;;
4323;SDS011;2175;51.018;6.994;2023-05-07T05:16:46;6.03;;;3.50;;
4323;SDS011;2175;51.018;6.994;2023-05-07T05:19:12;4.03;;;3.53;;
4323;SDS011;2175;51.018;6.994;2023-05-07T05:21:38;6.13;;;4.67;;
4323;SDS011;2175;51.018;6.994;2023-05-07T05:24:03;7.10;;;4.07;;
4323;SDS011;2175;51.018;6.994;2023-05-07T05:26:29;12.13;;;3.87;;
4323;SDS011;2175;51.018;6.994;2023-05-07T05:28:55;7.80;;;4.63;;
4323;SDS011;2175;51.018;6.994;2023-05-07T05:31:20;6.77;;;4.00;;
4323;SDS011;2175;51.018;6.994;2023-05-07T05:33:46;6.77;;;3.93;;
4323;SDS011;2175;51.018;6.994;2023-05-07T05:36:11;4.90;;;4.20;;
4323;SDS011;2175;51.018;6.994;2023-05-07T05:38:38;6.50;;;3.73;;
4323;SDS011;2175;51.018;6.994;2023-05-07T05:41:05;7.77;;;3.50;;
4323;SDS011;2175;51.018;6.994;2023-05-07T05:43:32;5.57;;;3.73;;
4323;SDS011;2175;51.018;6.994;2023-05-07T05:45:57;5.53;;;4.17;;
4323;SDS011;2175;51.018;6.994;2023-05-07T05:48:23;4.40;;;3.50;;
4323;SDS011;2175;51.018;6.994;2023-05-07T05:50:49;5.20;;;3.90;;
4323;SDS011;2175;51.018;6.994;2023-05-07T05:53:15;10.07;;;3.20;;
4323;SDS011;2175;51.018;6.994;2023-05-07T05:55:41;6.13;;;3.43;;
4323;SDS011;2175;51.018;6.994;2023-05-07T05:58:07;4.90;;;3.00;;
4323;SDS011;2175;51.018;6.994;2023-05-07T06:00:33;7.07;;;3.23;;
4323;SDS011;2175;51.018;6.994;2023-05-07T06:02:59;4.07;;;3.00;;
4323;SDS011;2175;51.018;6.994;2023-05-07T06:05:25;4.50;;;3.30;;
4323;SDS011;2175;51.018;6.994;2023-05-07T06:07:50;6.00;;;3.77;;
4323;SDS011;2175;51.018;6.994;2023-05-07T06:10:16;5.10;;;3.30;;
4323;SDS011;2175;51.018;6.994;2023-05-07T06:12:41;8.30;;;6.20;;
4323;SDS011;2175;51.018;6.994;2023-05-07T06:15:07;6.80;;;5.30;;
4323;SDS011;2175;51.018;6.994;2023-05-07T06:17:33;5.50;;;4.20;;
4323;SDS011;2175;51.018;6.994;2023-05-07T06:19:59;4.30;;;3.20;;
4323;SDS011;2175;51.018;6.994;2023-05-07T06:22:24;9.13;;;4.00;;
4323;SDS011;2175;51.018;6.994;2023-05-07T06:24:50;4.10;;;3.07;;
4323;SDS011;2175;51.018;6.994;2023-05-07T06:27:16;3.47;;;3.00;;
4323;SDS011;2175;51.018;6.994;2023-05-07T06:29:41;8.93;;;3.47;;
4323;SDS011;2175;51.018;6.994;2023-05-07T06:32:11;6.57;;;3.33;;
4323;SDS011;2175;51.018;6.994;2023-05-07T06:34:38;4.33;;;3.00;;
4323;SDS011;2175;51.018;6.994;2023-05-07T06:37:04;9.03;;;3.20;;
4323;SDS011;2175;51.018;6.994;2023-05-07T06:39:30;3.90;;;2.90;;
4323;SDS011;2175;51.018;6.994;2023-05-07T06:41:56;4.40;;;3.30;;
4323;SDS011;2175;51.018;6.994;2023-05-07T06:44:21;4.10;;;3.07;;
4323;SDS011;2175;51.018;6.994;2023-05-07T06:46:47;6.53;;;2.93;;
4323;SDS011;2175;51.018;6.994;2023-05-07T06:49:13;8.83;;;2.90;;
4323;SDS011;2175;51.018;6.994;2023-05-07T06:51:39;4.73;;;3.63;;
4323;SDS011;2175;51.018;6.994;2023-05-07T06:54:04;4.97;;;3.27;;
4323;SDS011;2175;51.018;6.994;2023-05-07T06:56:31;5.30;;;3.57;;
4323;SDS011;2175;51.018;6.994;2023-05-07T06:58:56;3.60;;;2.83;;
4323;SDS011;2175;51.018;6.994;2023-05-07T07:01:22;5.83;;;3.10;;
4323;SDS011;2175;51.018;6.994;2023-05-07T07:03:48;6.90;;;3.27;;
4323;SDS011;2175;51.018;6.994;2023-05-07T07:06:13;3.90;;;3.00;;
4323;SDS011;2175;51.018;6.994;2023-05-07T07:08:39;5.77;;;3.10;;
4323;SDS011;2175;51.018;6.994;2023-05-07T07:11:05;4.50;;;2.80;;
4323;SDS011;2175;51.018;6.994;2023-05-07T07:13:31;5.63;;;2.87;;
4323;SDS011;2175;51.018;6.994;2023-05-07T07:15:57;5.27;;;2.70;;
4323;SDS011;2175;51.018;6.994;2023-05-07T07:18:23;4.60;;;2.60;;
4323;SDS011;2175;51.018;6.994;2023-05-07T07:20:48;5.00;;;2.50;;
4323;SDS011;2175;51.018;6.994;2023-05-07T07:23:15;3.87;;;2.60;;
4323;SDS011;2175;51.018;6.994;2023-05-07T07:25:41;4.33;;;2.50;;
4323;SDS011;2175;51.018;6.994;2023-05-07T07:28:06;4.73;;;2.80;;
4323;SDS011;2175;51.018;6.994;2023-05-07T07:30:32;3.40;;;2.33;;
4323;SDS011;2175;51.018;6.994;2023-05-07T07:32:57;5.63;;;2.90;;
4323;SDS011;2175;51.018;6.994;2023-05-07T07:35:28;2.53;;;2.10;;
4323;SDS011;2175;51.018;6.994;2023-05-07T07:37:54;6.93;;;2.10;;
4323;SDS011;2175;51.018;6.994;2023-05-07T07:40:20;4.00;;;2.27;;
4323;SDS011;2175;51.018;6.994;2023-05-07T07:42:46;2.83;;;1.97;;
4323;SDS011;2175;51.018;6.994;2023-05-07T07:47:39;3.60;;;2.27;;
4323;SDS011;2175;51.018;6.994;2023-05-07T07:50:05;5.27;;;2.30;;
4323;SDS011;2175;51.018;6.994;2023-05-07T07:52:32;4.30;;;2.53;;
4323;SDS011;2175;51.018;6.994;2023-05-07T07:54:58;3.60;;;1.90;;
4323;SDS011;2175;51.018;6.994;2023-05-07T07:57:23;5.30;;;2.20;;
4323;SDS011;2175;51.018;6.994;2023-05-07T07:59:49;3.60;;;1.90;;
4323;SDS011;2175;51.018;6.994;2023-05-07T08:02:15;2.60;;;1.90;;
4323;SDS011;2175;51.018;6.994;2023-05-07T08:04:41;3.07;;;2.23;;
4323;SDS011;2175;51.018;6.994;2023-05-07T08:07:09;2.77;;;2.10;;
4323;SDS011;2175;51.018;6.994;2023-05-07T08:09:36;5.33;;;2.40;;
4323;SDS011;2175;51.018;6.994;2023-05-07T08:12:03;5.60;;;2.43;;
4323;SDS011;2175;51.018;6.994;2023-05-07T08:14:31;4.53;;;2.17;;
4323;SDS011;2175;51.018;6.994;2023-05-07T08:16:56;4.00;;;2.27;;
4323;SDS011;2175;51.018;6.994;2023-05-07T08:19:22;5.10;;;2.77;;
4323;SDS011;2175;51.018;6.994;2023-05-07T08:21:48;3.33;;;2.50;;
4323;SDS011;2175;51.018;6.994;2023-05-07T08:24:14;2.90;;;2.33;;
4323;SDS011;2175;51.018;6.994;2023-05-07T08:26:40;2.93;;;2.10;;
4323;SDS011;2175;51.018;6.994;2023-05-07T08:29:07;2.40;;;1.90;;
4323;SDS011;2175;51.018;6.994;2023-05-07T08:31:34;5.90;;;2.50;;
4323;SDS011;2175;51.018;6.994;2023-05-07T08:34:00;3.17;;;2.30;;
4323;SDS011;2175;51.018;6.994;2023-05-07T08:36:26;3.90;;;2.50;;
4323;SDS011;2175;51.018;6.994;2023-05-07T08:38:53;3.40;;;2.10;;
4323;SDS011;2175;51.018;6.994;2023-05-07T08:41:19;4.10;;;2.53;;
4323;SDS011;2175;51.018;6.994;2023-05-07T08:43:46;2.50;;;2.20;;
4323;SDS011;2175;51.018;6.994;2023-05-07T08:46:17;2.53;;;2.00;;
4323;SDS011;2175;51.018;6.994;2023-05-07T08:48:47;4.30;;;2.20;;
4323;SDS011;2175;51.018;6.994;2023-05-07T08:51:15;4.07;;;2.40;;
4323;SDS011;2175;51.018;6.994;2023-05-07T08:53:42;6.70;;;2.53;;
4323;SDS011;2175;51.018;6.994;2023-05-07T08:56:08;3.23;;;2.10;;
4323;SDS011;2175;51.018;6.994;2023-05-07T08:58:34;5.47;;;2.60;;
4323;SDS011;2175;51.018;6.994;2023-05-07T09:01:02;3.50;;;2.10;;
4323;SDS011;2175;51.018;6.994;2023-05-07T09:03:32;6.17;;;2.40;;
4323;SDS011;2175;51.018;6.994;2023-05-07T09:05:58;3.23;;;2.40;;
4323;SDS011;2175;51.018;6.994;2023-05-07T09:08:27;3.57;;;1.93;;
4323;SDS011;2175;51.018;6.994;2023-05-07T09:10:53;2.40;;;2.13;;
4323;SDS011;2175;51.018;6.994;2023-05-07T09:13:19;3.00;;;2.10;;
4323;SDS011;2175;51.018;6.994;2023-05-07T09:15:45;4.07;;;2.30;;
4323;SDS011;2175;51.018;6.994;2023-05-07T09:18:12;2.50;;;2.10;;
4323;SDS011;2175;51.018;6.994;2023-05-07T09:20:38;3.37;;;2.47;;
4323;SDS011;2175;51.018;6.994;2023-05-07T09:23:04;3.80;;;2.17;;
4323;SDS011;2175;51.018;6.994;2023-05-07T09:25:32;4.77;;;2.30;;
4323;SDS011;2175;51.018;6.994;2023-05-07T09:27:58;4.43;;;2.40;;
4323;SDS011;2175;51.018;6.994;2023-05-07T09:30:31;3.70;;;2.13;;
4323;SDS011;2175;51.018;6.994;2023-05-07T09:32:58;4.50;;;2.50;;
4323;SDS011;2175;51.018;6.994;2023-05-07T09:35:25;4.00;;;2.30;;
4323;SDS011;2175;51.018;6.994;2023-05-07T09:37:57;2.40;;;2.03;;
4323;SDS011;2175;51.018;6.994;2023-05-07T09:40:24;2.80;;;2.03;;
4323;SDS011;2175;51.018;6.994;2023-05-07T09:42:52;4.20;;;2.23;;
4323;SDS011;2175;51.018;6.994;2023-05-07T09:45:21;6.10;;;1.90;;
4323;SDS011;2175;51.018;6.994;2023-05-07T09:47:48;2.17;;;1.87;;
4323;SDS011;2175;51.018;6.994;2023-05-07T09:50:18;4.97;;;1.90;;
4323;SDS011;2175;51.018;6.994;2023-05-07T09:52:46;2.93;;;2.10;;
4323;SDS011;2175;51.018;6.994;2023-05-07T09:55:13;2.47;;;2.10;;
4323;SDS011;2175;51.018;6.994;2023-05-07T09:57:40;3.07;;;2.10;;
4323;SDS011;2175;51.018;6.994;2023-05-07T10:00:07;4.87;;;2.00;;
4323;SDS011;2175;51.018;6.994;2023-05-07T10:02:35;4.93;;;2.00;;
4323;SDS011;2175;51.018;6.994;2023-05-07T10:05:02;4.70;;;2.10;;
4323;SDS011;2175;51.018;6.994;2023-05-07T10:07:29;4.90;;;2.20;;
4323;SDS011;2175;51.018;6.994;2023-05-07T10:09:55;5.93;;;2.40;;
4323;SDS011;2175;51.018;6.994;2023-05-07T10:12:21;4.53;;;2.17;;
4323;SDS011;2175;51.018;6.994;2023-05-07T10:14:46;2.77;;;1.90;;
4323;SDS011;2175;51.018;6.994;2023-05-07T10:17:13;10.23;;;2.00;;
4323;SDS011;2175;51.018;6.994;2023-05-07T10:19:42;6.03;;;2.60;;
4323;SDS011;2175;51.018;6.994;2023-05-07T10:22:11;5.73;;;1.90;;
4323;SDS011;2175;51.018;6.994;2023-05-07T10:24:40;4.00;;;1.90;;
4323;SDS011;2175;51.018;6.994;2023-05-07T10:27:08;3.40;;;1.87;;
4323;SDS011;2175;51.018;6.994;2023-05-07T10:29:42;3.23;;;2.10;;
4323;SDS011;2175;51.018;6.994;2023-05-07T10:35:06;4.67;;;1.90;;
4323;SDS011;2175;51.018;6.994;2023-05-07T10:37:39;5.20;;;2.10;;
4323;SDS011;2175;51.018;6.994;2023-05-07T10:40:05;3.13;;;1.93;;
4323;SDS011;2175;51.018;6.994;2023-05-07T10:42:32;3.10;;;1.97;;
4323;SDS011;2175;51.018;6.994;2023-05-07T10:44:57;3.00;;;2.07;;
4323;SDS011;2175;51.018;6.994;2023-05-07T10:47:37;2.97;;;1.93;;
4323;SDS011;2175;51.018;6.994;2023-05-07T10:50:35;4.77;;;3.00;;
4323;SDS011;2175;51.018;6.994;2023-05-07T10:55:49;3.33;;;2.33;;
4323;SDS011;2175;51.018;6.994;2023-05-07T11:00:50;4.17;;;2.37;;
4323;SDS011;2175;51.018;6.994;2023-05-07T11:03:16;6.50;;;2.57;;
4323;SDS011;2175;51.018;6.994;2023-05-07T11:05:43;3.47;;;2.20;;
4323;SDS011;2175;51.018;6.994;2023-05-07T11:08:09;2.90;;;2.10;;
4323;SDS011;2175;51.018;6.994;2023-05-07T11:10:54;5.10;;;2.17;;
4323;SDS011;2175;51.018;6.994;2023-05-07T11:16:25;2.30;;;1.90;;
4323;SDS011;2175;51.018;6.994;2023-05-07T11:18:53;3.40;;;2.27;;
4323;SDS011;2175;51.018;6.994;2023-05-07T11:21:36;3.10;;;2.27;;
4323;SDS011;2175;51.018;6.994;2023-05-07T11:24:04;6.13;;;2.10;;
4323;SDS011;2175;51.018;6.994;2023-05-07T11:26:46;2.43;;;2.00;;
4323;SDS011;2175;51.018;6.994;2023-05-07T11:29:17;5.10;;;1.90;;
4323;SDS011;2175;51.018;6.994;2023-05-07T11:31:44;2.10;;;1.60;;
4323;SDS011;2175;51.018;6.994;2023-05-07T11:34:14;4.00;;;1.80;;
4323;SDS011;2175;51.018;6.994;2023-05-07T11:36:45;2.67;;;1.80;;
4323;SDS011;2175;51.018;6.994;2023-05-07T11:41:51;2.43;;;1.97;;
4323;SDS011;2175;51.018;6.994;2023-05-07T11:44:19;2.77;;;2.00;;
4323;SDS011;2175;51.018;6.994;2023-05-07T11:46:45;2.70;;;2.00;;
4323;SDS011;2175;51.018;6.994;2023-05-07T11:49:11;5.50;;;2.30;;
4323;SDS011;2175;51.018;6.994;2023-05-07T11:51:37;3.40;;;2.00;;
4323;SDS011;2175;51.018;6.994;2023-05-07T11:54:04;7.43;;;2.20;;
4323;SDS011;2175;51.018;6.994;2023-05-07T11:56:34;2.07;;;1.80;;
4323;SDS011;2175;51.018;6.994;2023-05-07T11:59:02;5.30;;;2.30;;
4323;SDS011;2175;51.018;6.994;2023-05-07T12:01:27;4.00;;;2.10;;
4323;SDS011;2175;51.018;6.994;2023-05-07T12:03:53;3.30;;;1.83;;
4323;SDS011;2175;51.018;6.994;2023-05-07T12:06:19;4.10;;;2.27;;
4323;SDS011;2175;51.018;6.994;2023-05-07T12:08:45;4.13;;;2.53;;
4323;SDS011;2175;51.018;6.994;2023-05-07T12:11:15;6.90;;;2.40;;
4323;SDS011;2175;51.018;6.994;2023-05-07T12:13:47;4.80;;;2.07;;
4323;SDS011;2175;51.018;6.994;2023-05-07T12:16:12;5.03;;;2.70;;
4323;SDS011;2175;51.018;6.994;2023-05-07T12:18:39;5.50;;;2.43;;
4323;SDS011;2175;51.018;6.994;2023-05-07T12:21:05;2.20;;;1.90;;
4323;SDS011;2175;51.018;6.994;2023-05-07T12:23:33;2.93;;;2.00;;
4323;SDS011;2175;51.018;6.994;2023-05-07T12:25:59;2.87;;;2.10;;
4323;SDS011;2175;51.018;6.994;2023-05-07T12:28:25;4.93;;;2.70;;
4323;SDS011;2175;51.018;6.994;2023-05-07T12:30:51;3.83;;;2.83;;
4323;SDS011;2175;51.018;6.994;2023-05-07T12:33:18;5.90;;;2.90;;
4323;SDS011;2175;51.018;6.994;2023-05-07T12:35:48;9.27;;;2.80;;
4323;SDS011;2175;51.018;6.994;2023-05-07T12:38:15;5.33;;;2.40;;
4323;SDS011;2175;51.018;6.994;2023-05-07T12:40:43;2.70;;;2.17;;
4323;SDS011;2175;51.018;6.994;2023-05-07T12:43:15;2.60;;;2.10;;
4323;SDS011;2175;51.018;6.994;2023-05-07T12:45:49;3.77;;;2.27;;
4323;SDS011;2175;51.018;6.994;2023-05-07T12:48:18;2.63;;;1.93;;
4323;SDS011;2175;51.018;6.994;2023-05-07T12:50:45;3.50;;;2.23;;
4323;SDS011;2175;51.018;6.994;2023-05-07T12:53:13;3.70;;;2.20;;
4323;SDS011;2175;51.018;6.994;2023-05-07T12:55:46;3.43;;;2.20;;
4323;SDS011;2175;51.018;6.994;2023-05-07T12:58:14;3.17;;;2.47;;
4323;SDS011;2175;51.018;6.994;2023-05-07T13:00:51;2.63;;;1.90;;
4323;SDS011;2175;51.018;6.994;2023-05-07T13:03:27;3.37;;;2.33;;
4323;SDS011;2175;51.018;6.994;2023-05-07T13:05:55;3.10;;;2.03;;
4323;SDS011;2175;51.018;6.994;2023-05-07T13:08:27;2.43;;;2.10;;
4323;SDS011;2175;51.018;6.994;2023-05-07T13:10:56;4.33;;;2.00;;
4323;SDS011;2175;51.018;6.994;2023-05-07T13:13:23;3.23;;;2.20;;
4323;SDS011;2175;51.018;6.994;2023-05-07T13:15:49;4.73;;;2.70;;
4323;SDS011;2175;51.018;6.994;2023-05-07T13:18:14;3.47;;;2.20;;
4323;SDS011;2175;51.018;6.994;2023-05-07T13:20:40;4.77;;;2.20;;
4323;SDS011;2175;51.018;6.994;2023-05-07T13:23:06;2.63;;;1.80;;
4323;SDS011;2175;51.018;6.994;2023-05-07T13:25:31;5.83;;;2.33;;
4323;SDS011;2175;51.018;6.994;2023-05-07T13:27:57;4.17;;;2.37;;
4323;SDS011;2175;51.018;6.994;2023-05-07T13:30:23;4.87;;;2.73;;
4323;SDS011;2175;51.018;6.994;2023-05-07T13:32:48;4.03;;;2.80;;
4323;SDS011;2175;51.018;6.994;2023-05-07T13:35:15;2.80;;;2.13;;
4323;SDS011;2175;51.018;6.994;2023-05-07T13:37:41;4.20;;;2.63;;
4323;SDS011;2175;51.018;6.994;2023-05-07T13:40:08;5.33;;;2.80;;
4323;SDS011;2175;51.018;6.994;2023-05-07T13:42:34;3.80;;;2.70;;
4323;SDS011;2175;51.018;6.994;2023-05-07T13:47:27;5.43;;;3.27;;
4323;SDS011;2175;51.018;6.994;2023-05-07T13:49:54;4.37;;;3.30;;
4323;SDS011;2175;51.018;6.994;2023-05-07T13:52:22;3.50;;;2.70;;
4323;SDS011;2175;51.018;6.994;2023-05-07T13:54:49;5.27;;;2.77;;
4323;SDS011;2175;51.018;6.994;2023-05-07T13:57:17;6.03;;;2.60;;
4323;SDS011;2175;51.018;6.994;2023-05-07T13:59:43;11.60;;;2.60;;
4323;SDS011;2175;51.018;6.994;2023-05-07T14:02:09;12.20;;;5.20;;
4323;SDS011;2175;51.018;6.994;2023-05-07T14:04:34;10.17;;;6.17;;
4323;SDS011;2175;51.018;6.994;2023-05-07T14:07:00;10.93;;;4.53;;
4323;SDS011;2175;51.018;6.994;2023-05-07T14:09:26;15.10;;;6.13;;
4323;SDS011;2175;51.018;6.994;2023-05-07T14:11:52;11.20;;;4.83;;
4323;SDS011;2175;51.018;6.994;2023-05-07T14:14:18;7.57;;;3.80;;
4323;SDS011;2175;51.018;6.994;2023-05-07T14:16:44;4.63;;;2.60;;
4323;SDS011;2175;51.018;6.994;2023-05-07T14:19:10;3.37;;;2.33;;
4323;SDS011;2175;51.018;6.994;2023-05-07T14:21:39;3.13;;;2.60;;
4323;SDS011;2175;51.018;6.994;2023-05-07T14:24:06;6.30;;;2.63;;
4323;SDS011;2175;51.018;6.994;2023-05-07T14:26:33;5.60;;;2.73;;
4323;SDS011;2175;51.018;6.994;2023-05-07T14:28:58;4.80;;;2.50;;
4323;SDS011;2175;51.018;6.994;2023-05-07T14:31:24;5.70;;;3.03;;
4323;SDS011;2175;51.018;6.994;2023-05-07T14:33:51;6.00;;;2.93;;
4323;SDS011;2175;51.018;6.994;2023-05-07T14:36:17;4.83;;;2.73;;
4323;SDS011;2175;51.018;6.994;2023-05-07T14:38:47;6.67;;;3.20;;
4323;SDS011;2175;51.018;6.994;2023-05-07T14:41:13;6.43;;;3.00;;
4323;SDS011;2175;51.018;6.994;2023-05-07T14:43:40;5.23;;;3.20;;
4323;SDS011;2175;51.018;6.994;2023-05-07T14:46:06;15.70;;;6.40;;
4323;SDS011;2175;51.018;6.994;2023-05-07T14:48:33;6.27;;;3.90;;
4323;SDS011;2175;51.018;6.994;2023-05-07T14:50:58;8.23;;;3.43;;
4323;SDS011;2175;51.018;6.994;2023-05-07T14:53:38;3.80;;;2.97;;
4323;SDS011;2175;51.018;6.994;2023-05-07T14:56:32;4.47;;;3.30;;
4323;SDS011;2175;51.018;6.994;2023-05-07T14:59:16;5.63;;;2.77;;
4323;SDS011;2175;51.018;6.994;2023-05-07T15:01:46;6.73;;;3.03;;
4323;SDS011;2175;51.018;6.994;2023-05-07T15:04:12;5.43;;;3.00;;
4323;SDS011;2175;51.018;6.994;2023-05-07T15:06:38;4.93;;;2.57;;
4323;SDS011;2175;51.018;6.994;2023-05-07T15:09:03;3.97;;;2.70;;
4323;SDS011;2175;51.018;6.994;2023-05-07T15:11:29;3.73;;;2.73;;
4323;SDS011;2175;51.018;6.994;2023-05-07T15:13:57;3.77;;;3.20;;
4323;SDS011;2175;51.018;6.994;2023-05-07T15:16:22;4.43;;;2.90;;
4323;SDS011;2175;51.018;6.994;2023-05-07T15:18:48;6.63;;;3.60;;
4323;SDS011;2175;51.018;6.994;2023-05-07T15:21:15;6.60;;;3.67;;
4323;SDS011;2175;51.018;6.994;2023-05-07T15:23:40;6.70;;;3.67;;
4323;SDS011;2175;51.018;6.994;2023-05-07T15:26:06;6.03;;;3.20;;
4323;SDS011;2175;51.018;6.994;2023-05-07T15:28:33;6.93;;;3.80;;
4323;SDS011;2175;51.018;6.994;2023-05-07T15:30:59;5.13;;;3.63;;
4323;SDS011;2175;51.018;6.994;2023-05-07T15:33:25;6.00;;;3.83;;